createdAt,value
2022-09-30T00:01:46.066Z,4.03
2022-09-30T00:04:23.186Z,4.02
2022-09-30T00:06:53.572Z,4.16
2022-09-30T00:09:21.672Z,4.17
2022-09-30T00:11:48.319Z,4.15
2022-09-30T00:14:20.398Z,4.11
2022-09-30T00:16:47.114Z,4.16
2022-09-30T00:19:13.999Z,4.13
2022-09-30T00:21:41.224Z,4.06
2022-09-30T00:24:07.822Z,4.09
2022-09-30T00:26:35.298Z,4.09
2022-09-30T00:29:05.737Z,4.16
2022-09-30T00:31:35.325Z,4.31
2022-09-30T00:34:11.115Z,4.45
2022-09-30T00:36:58.229Z,4.10
2022-09-30T00:39:27.600Z,3.66
2022-09-30T00:42:01.586Z,4.02
2022-09-30T00:44:51.302Z,4.23
2022-09-30T00:47:49.061Z,4.23
2022-09-30T00:50:21.267Z,3.92
2022-09-30T00:53:03.348Z,4.05
2022-09-30T00:55:44.701Z,4.20
2022-09-30T00:58:25.175Z,4.34
2022-09-30T01:01:01.901Z,4.45
2022-09-30T01:03:38.548Z,4.47
2022-09-30T01:06:05.543Z,4.45
2022-09-30T01:08:37.862Z,4.40
2022-09-30T01:11:08.215Z,4.41
2022-09-30T01:13:39.175Z,4.41
2022-09-30T01:16:48.339Z,4.19
2022-09-30T01:19:53.342Z,4.20
2022-09-30T01:22:45.443Z,4.29
2022-09-30T01:25:47.416Z,4.29
2022-09-30T01:29:05.916Z,4.16
2022-09-30T01:32:00.267Z,4.12
2022-09-30T01:34:56.551Z,4.19
2022-09-30T01:37:52.494Z,4.18
2022-09-30T01:40:37.439Z,4.13
2022-09-30T01:43:42.487Z,3.86
2022-09-30T01:46:34.653Z,3.78
2022-09-30T01:49:20.378Z,3.87
2022-09-30T01:52:08.418Z,4.02
2022-09-30T01:55:16.640Z,3.88
2022-09-30T01:57:48.726Z,3.59
2022-09-30T02:00:15.712Z,3.91
2022-09-30T02:02:54.234Z,3.94
2022-09-30T02:05:37.761Z,3.90
2022-09-30T02:08:17.218Z,3.97
2022-09-30T02:11:08.075Z,3.96
2022-09-30T02:13:56.721Z,3.85
2022-09-30T02:16:35.269Z,3.67
2022-09-30T02:19:13.337Z,3.57
2022-09-30T02:21:47.844Z,3.60
2022-09-30T02:24:20.014Z,3.70
2022-09-30T02:26:50.355Z,3.88
2022-09-30T02:29:24.871Z,3.94
2022-09-30T02:31:59.409Z,3.86
2022-09-30T02:34:37.812Z,3.72
2022-09-30T02:37:21.988Z,3.47
2022-09-30T02:40:10.593Z,3.28
2022-09-30T02:42:38.978Z,3.14
2022-09-30T02:45:16.284Z,3.10
2022-09-30T02:48:02.704Z,3.18
2022-09-30T02:50:52.248Z,3.10
2022-09-30T02:53:41.205Z,3.00
2022-09-30T02:56:27.283Z,2.94
2022-09-30T02:58:57.030Z,3.03
2022-09-30T03:01:25.168Z,3.04
2022-09-30T03:04:09.197Z,2.98
2022-09-30T03:06:38.175Z,2.98
2022-09-30T03:09:05.167Z,3.06
2022-09-30T03:11:32.520Z,3.14
2022-09-30T03:14:17.512Z,3.26
2022-09-30T03:17:39.021Z,3.21
2022-09-30T03:20:31.051Z,3.14
2022-09-30T03:23:13.603Z,3.17
2022-09-30T03:26:36.397Z,3.03
2022-09-30T03:29:36.456Z,3.06
2022-09-30T03:32:28.723Z,3.18
2022-09-30T03:35:03.913Z,3.19
2022-09-30T03:37:33.859Z,3.20
2022-09-30T03:40:28.448Z,3.22
2022-09-30T03:43:17.240Z,3.25
2022-09-30T03:45:57.350Z,3.14
2022-09-30T03:48:28.851Z,3.16
2022-09-30T03:50:56.978Z,3.27
2022-09-30T03:53:23.679Z,3.36
2022-09-30T03:55:52.776Z,3.42
2022-09-30T03:58:23.273Z,3.46
2022-09-30T04:00:53.371Z,3.23
2022-09-30T04:03:25.492Z,3.04
2022-09-30T04:05:52.018Z,2.93
2022-09-30T04:08:18.592Z,2.79
2022-09-30T04:10:50.626Z,2.83
2022-09-30T04:13:17.078Z,2.83
2022-09-30T04:15:43.510Z,2.77
2022-09-30T04:18:09.987Z,2.77
2022-09-30T04:20:38.499Z,2.83
2022-09-30T04:23:04.951Z,2.99
2022-09-30T04:25:31.395Z,3.01
2022-09-30T04:27:57.895Z,2.72
2022-09-30T04:30:26.499Z,2.45
2022-09-30T04:32:55.479Z,2.57
2022-09-30T04:35:21.959Z,2.70
2022-09-30T04:37:48.456Z,2.61
2022-09-30T04:40:16.931Z,2.53
2022-09-30T04:42:43.894Z,2.51
2022-09-30T04:45:14.635Z,2.55
2022-09-30T04:47:45.379Z,2.58
2022-09-30T04:50:11.926Z,2.69
2022-09-30T04:52:42.274Z,2.82
2022-09-30T04:55:09.759Z,2.84
2022-09-30T04:57:36.912Z,2.75
2022-09-30T05:00:08.910Z,2.64
2022-09-30T05:02:35.612Z,2.65
2022-09-30T05:05:03.073Z,2.64
2022-09-30T05:07:38.131Z,2.71
2022-09-30T05:10:05.416Z,2.80
2022-09-30T05:12:31.931Z,2.55
2022-09-30T05:14:58.404Z,2.53
2022-09-30T05:17:24.866Z,2.68
2022-09-30T05:19:53.619Z,2.80
2022-09-30T05:22:20.050Z,2.87
2022-09-30T05:24:46.524Z,2.84
2022-09-30T05:27:12.940Z,2.77
2022-09-30T05:29:39.711Z,2.76
2022-09-30T05:32:07.718Z,2.84
2022-09-30T05:34:34.176Z,2.86
2022-09-30T05:37:00.672Z,2.69
2022-09-30T05:39:27.104Z,2.64
2022-09-30T05:41:57.332Z,2.68
2022-09-30T05:44:24.208Z,2.73
2022-09-30T05:46:50.733Z,2.72
2022-09-30T05:49:20.253Z,2.59
2022-09-30T05:51:49.406Z,2.63
2022-09-30T05:54:15.824Z,2.72
2022-09-30T05:56:42.309Z,2.77
2022-09-30T05:59:08.739Z,2.65
2022-09-30T06:01:36.037Z,2.48
2022-09-30T06:04:02.850Z,2.39
2022-09-30T06:06:30.210Z,2.52
2022-09-30T06:08:56.878Z,2.56
2022-09-30T06:11:25.013Z,2.64
2022-09-30T06:13:52.251Z,2.69
2022-09-30T06:16:19.685Z,2.73
2022-09-30T06:18:46.554Z,2.78
2022-09-30T06:21:16.057Z,2.80
2022-09-30T06:23:43.171Z,2.70
2022-09-30T06:26:12.701Z,2.65
2022-09-30T06:28:39.438Z,2.70
2022-09-30T06:31:07.065Z,2.80
2022-09-30T06:33:34.394Z,2.88
2022-09-30T06:36:04.365Z,2.94
2022-09-30T06:38:33.143Z,3.01
2022-09-30T06:41:02.951Z,3.00
2022-09-30T06:43:29.414Z,2.94
2022-09-30T06:46:06.865Z,2.92
2022-09-30T06:48:39.198Z,2.86
2022-09-30T06:51:09.795Z,2.90
2022-09-30T06:53:39.099Z,2.77
2022-09-30T06:56:06.511Z,2.67
2022-09-30T06:58:32.945Z,2.66
2022-09-30T07:01:06.137Z,2.54
2022-09-30T07:03:35.662Z,2.53
2022-09-30T07:06:05.923Z,2.51
2022-09-30T07:08:35.749Z,2.54
2022-09-30T07:11:14.475Z,2.50
2022-09-30T07:13:45.803Z,2.58
2022-09-30T07:16:14.046Z,2.63
2022-09-30T07:18:44.946Z,2.71
2022-09-30T07:21:15.722Z,2.68
2022-09-30T07:23:47.983Z,2.72
2022-09-30T07:26:21.214Z,2.72
2022-09-30T07:28:49.541Z,2.87
2022-09-30T07:31:32.343Z,2.83
2022-09-30T07:34:00.084Z,2.83
2022-09-30T07:36:32.559Z,2.88
2022-09-30T07:39:05.602Z,2.88
2022-09-30T07:41:35.656Z,2.97
2022-09-30T07:44:02.847Z,3.21
2022-09-30T07:46:33.093Z,3.43
2022-09-30T07:49:03.902Z,3.59
2022-09-30T07:51:38.468Z,3.56
2022-09-30T07:54:15.188Z,3.69
2022-09-30T07:57:09.779Z,3.57
2022-09-30T07:59:32.621Z,3.62
2022-09-30T08:01:59.161Z,3.93
2022-09-30T08:04:27.237Z,4.10
2022-09-30T08:06:58.704Z,4.18
2022-09-30T08:09:27.774Z,4.33
2022-09-30T08:11:55.355Z,4.43
2022-09-30T08:14:27.533Z,4.54
2022-09-30T08:16:56.434Z,4.69
2022-09-30T08:19:26.033Z,4.78
2022-09-30T08:21:54.140Z,4.84
2022-09-30T08:24:23.959Z,4.91
2022-09-30T08:26:51.228Z,4.97
2022-09-30T08:29:20.329Z,5.09
2022-09-30T08:31:52.278Z,5.15
2022-09-30T08:34:19.155Z,5.25
2022-09-30T08:36:46.486Z,5.34
2022-09-30T08:39:13.333Z,5.34
2022-09-30T08:42:13.684Z,5.38
2022-09-30T08:44:51.120Z,5.50
2022-09-30T08:47:45.547Z,5.63
2022-09-30T08:50:27.855Z,5.74
2022-09-30T08:53:03.395Z,5.82
2022-09-30T08:55:40.459Z,5.93
2022-09-30T08:58:21.433Z,6.07
2022-09-30T09:00:54.773Z,6.17
2022-09-30T09:03:28.511Z,6.26
2022-09-30T09:06:16.649Z,6.36
2022-09-30T09:09:25.838Z,6.43
2022-09-30T09:12:24.725Z,6.44
2022-09-30T09:14:54.494Z,6.58
2022-09-30T09:17:37.514Z,6.65
2022-09-30T09:20:14.885Z,6.69
2022-09-30T09:22:44.403Z,6.85
2022-09-30T09:25:15.700Z,6.97
2022-09-30T09:27:56.112Z,7.12
2022-09-30T09:30:26.208Z,7.27
2022-09-30T09:32:58.129Z,7.35
2022-09-30T09:35:42.391Z,7.46
2022-09-30T09:38:28.952Z,7.51
2022-09-30T09:41:41.731Z,7.60
2022-09-30T09:44:49.306Z,7.74
2022-09-30T09:47:17.123Z,7.90
2022-09-30T09:49:55.342Z,8.07
2022-09-30T09:52:49.359Z,8.17
2022-09-30T09:55:21.928Z,8.26
2022-09-30T09:58:04.017Z,8.36
2022-09-30T10:00:45.789Z,8.35
2022-09-30T10:03:21.277Z,8.48
2022-09-30T10:06:07.621Z,8.55
2022-09-30T10:08:39.096Z,8.57
2022-09-30T10:11:21.490Z,8.68
2022-09-30T10:13:48.419Z,8.85
2022-09-30T10:16:37.987Z,8.95
2022-09-30T10:19:19.852Z,9.07
2022-09-30T10:21:46.371Z,9.22
2022-09-30T10:24:22.695Z,9.28
2022-09-30T10:26:49.470Z,9.36
2022-09-30T10:29:31.503Z,9.49
2022-09-30T10:32:02.280Z,9.58
2022-09-30T10:34:38.004Z,9.65
2022-09-30T10:37:20.517Z,9.73
2022-09-30T10:40:01.969Z,9.93
2022-09-30T10:42:34.589Z,9.97
2022-09-30T10:45:16.360Z,10.08
2022-09-30T10:47:51.392Z,10.20
2022-09-30T10:50:25.032Z,10.32
2022-09-30T10:53:04.690Z,10.38
2022-09-30T10:55:42.517Z,10.51
2022-09-30T10:58:39.889Z,10.60
2022-09-30T11:01:26.136Z,10.60
2022-09-30T11:04:14.591Z,10.69
2022-09-30T11:06:44.465Z,10.77
2022-09-30T11:09:34.736Z,10.80
2022-09-30T11:12:17.319Z,10.75
2022-09-30T11:15:04.339Z,10.79
2022-09-30T11:17:49.612Z,10.85
2022-09-30T11:20:25.139Z,10.98
2022-09-30T11:23:20.692Z,11.06
2022-09-30T11:26:30.482Z,10.98
2022-09-30T11:29:56.422Z,11.02
2022-09-30T11:32:49.076Z,11.13
2022-09-30T11:35:42.897Z,11.12
2022-09-30T11:38:28.242Z,11.22
2022-09-30T11:41:17.345Z,11.28
2022-09-30T11:44:06.993Z,11.44
2022-09-30T11:46:47.923Z,11.55
2022-09-30T11:49:38.012Z,11.60
2022-09-30T11:52:35.915Z,11.63
2022-09-30T11:55:26.322Z,11.72
2022-09-30T11:58:39.903Z,11.64
2022-09-30T12:01:19.573Z,11.64
2022-09-30T12:03:57.754Z,11.70
2022-09-30T12:07:06.976Z,11.73
2022-09-30T12:09:43.113Z,11.76
2022-09-30T12:12:17.180Z,11.71
2022-09-30T12:14:57.606Z,11.78
2022-09-30T12:17:39.239Z,11.88
2022-09-30T12:20:26.135Z,12.02
2022-09-30T12:23:01.084Z,12.11
2022-09-30T12:25:46.042Z,12.11
2022-09-30T12:28:53.703Z,12.16
2022-09-30T12:31:51.809Z,12.14
2022-09-30T12:34:21.153Z,12.24
2022-09-30T12:37:03.181Z,12.25
2022-09-30T12:40:08.371Z,12.31
2022-09-30T12:43:03.564Z,12.37
2022-09-30T12:46:01.416Z,12.42
2022-09-30T12:48:39.034Z,12.48
2022-09-30T12:51:07.486Z,12.42
2022-09-30T12:53:39.604Z,12.40
2022-09-30T12:56:14.451Z,12.42
2022-09-30T12:58:51.762Z,12.43
2022-09-30T13:01:25.799Z,12.49
2022-09-30T13:03:59.322Z,12.62
2022-09-30T13:06:48.139Z,12.60
2022-09-30T13:09:17.502Z,12.61
2022-09-30T13:12:12.315Z,12.65
2022-09-30T13:14:43.904Z,12.75
2022-09-30T13:17:10.250Z,12.85
2022-09-30T13:19:47.415Z,12.80
2022-09-30T13:22:29.614Z,12.71
2022-09-30T13:25:00.615Z,12.61
2022-09-30T13:27:38.997Z,12.64
2022-09-30T13:30:14.594Z,12.54
2022-09-30T13:33:06.812Z,12.57
2022-09-30T13:35:50.600Z,12.75
2022-09-30T13:38:34.376Z,12.91
2022-09-30T13:41:25.992Z,13.00
2022-09-30T13:44:21.200Z,13.04
2022-09-30T13:47:05.980Z,12.93
2022-09-30T13:50:00.469Z,12.86
2022-09-30T13:52:33.985Z,12.84
2022-09-30T13:55:50.034Z,12.92
2022-09-30T13:59:07.707Z,12.91
2022-09-30T14:01:38.708Z,12.87
2022-09-30T14:04:31.995Z,12.83
2022-09-30T14:07:23.096Z,12.96
2022-09-30T14:10:28.172Z,12.93
2022-09-30T14:13:28.230Z,12.88
2022-09-30T14:16:33.391Z,12.90
2022-09-30T14:19:22.789Z,12.85
2022-09-30T14:21:56.179Z,12.90
2022-09-30T14:24:33.863Z,12.95
2022-09-30T14:27:53.858Z,12.96
2022-09-30T14:30:26.307Z,12.92
2022-09-30T14:33:02.158Z,12.95
2022-09-30T14:35:33.619Z,12.89
2022-09-30T14:38:06.707Z,12.92
2022-09-30T14:40:40.055Z,12.98
2022-09-30T14:43:14.470Z,12.88
2022-09-30T14:45:46.872Z,12.73
2022-09-30T14:48:24.559Z,12.73
2022-09-30T14:50:57.606Z,12.73
2022-09-30T14:53:52.712Z,12.73
2022-09-30T14:56:30.577Z,12.70
2022-09-30T14:59:00.741Z,12.80
2022-09-30T15:01:35.474Z,12.76
2022-09-30T15:04:19.878Z,12.67
2022-09-30T15:06:52.860Z,12.64
2022-09-30T15:09:29.788Z,12.65
2022-09-30T15:11:58.923Z,12.72
2022-09-30T15:14:25.560Z,12.73
2022-09-30T15:16:56.080Z,12.74
2022-09-30T15:19:35.040Z,12.67
2022-09-30T15:22:06.431Z,12.62
2022-09-30T15:24:36.299Z,12.67
2022-09-30T15:27:04.810Z,12.64
2022-09-30T15:29:31.277Z,12.54
2022-09-30T15:32:22.099Z,12.45
2022-09-30T15:34:48.803Z,12.37
2022-09-30T15:37:26.067Z,12.35
2022-09-30T15:40:11.856Z,12.29
2022-09-30T15:42:47.596Z,12.28
2022-09-30T15:45:18.483Z,12.35
2022-09-30T15:47:58.883Z,12.33
2022-09-30T15:50:48.748Z,12.14
2022-09-30T15:53:25.659Z,12.17
2022-09-30T15:56:00.203Z,12.20
2022-09-30T15:58:26.666Z,12.23
2022-09-30T16:01:23.034Z,12.29
2022-09-30T16:04:02.616Z,12.12
2022-09-30T16:06:59.808Z,12.14
2022-09-30T16:09:35.688Z,12.09
2022-09-30T16:12:13.633Z,11.99
2022-09-30T16:14:50.138Z,11.99
2022-09-30T16:17:35.956Z,11.77
2022-09-30T16:20:20.196Z,11.67
2022-09-30T16:22:46.607Z,11.57
2022-09-30T16:25:33.519Z,11.48
2022-09-30T16:28:15.096Z,11.45
2022-09-30T16:30:46.939Z,11.48
2022-09-30T16:33:16.094Z,11.51
2022-09-30T16:35:44.157Z,11.37
2022-09-30T16:38:15.370Z,11.10
2022-09-30T16:40:41.837Z,11.08
2022-09-30T16:43:11.572Z,11.09
2022-09-30T16:45:39.770Z,10.91
2022-09-30T16:48:15.727Z,10.89
2022-09-30T16:50:50.190Z,10.95
2022-09-30T16:53:17.182Z,11.00
2022-09-30T16:55:44.799Z,11.02
2022-09-30T16:58:12.903Z,10.87
2022-09-30T17:00:45.179Z,10.70
2022-09-30T17:03:14.970Z,10.70
2022-09-30T17:05:44.477Z,10.65
2022-09-30T17:08:16.912Z,10.53
2022-09-30T17:10:50.023Z,10.49
2022-09-30T17:13:19.735Z,10.48
2022-09-30T17:15:52.476Z,10.42
2022-09-30T17:18:19.559Z,10.40
2022-09-30T17:20:53.005Z,10.38
2022-09-30T17:23:22.370Z,10.31
2022-09-30T17:25:49.519Z,10.30
2022-09-30T17:28:17.191Z,10.19
2022-09-30T17:30:47.703Z,10.08
2022-09-30T17:33:15.114Z,9.96
2022-09-30T17:35:41.592Z,9.89
2022-09-30T17:38:10.215Z,9.83
2022-09-30T17:40:55.928Z,9.70
2022-09-30T17:43:22.908Z,9.53
2022-09-30T17:45:50.688Z,9.47
2022-09-30T17:48:18.703Z,9.51
2022-09-30T17:50:48.269Z,9.47
2022-09-30T17:53:17.987Z,9.49
2022-09-30T17:55:47.912Z,9.35
2022-09-30T17:58:19.108Z,9.33
2022-09-30T18:00:47.020Z,9.16
2022-09-30T18:03:13.657Z,9.11
2022-09-30T18:05:40.173Z,9.09
2022-09-30T18:08:06.615Z,8.99
2022-09-30T18:10:37.845Z,9.00
2022-09-30T18:13:05.124Z,8.99
2022-09-30T18:15:31.756Z,8.88
2022-09-30T18:17:58.248Z,8.71
2022-09-30T18:20:25.601Z,8.70
2022-09-30T18:22:52.785Z,8.63
2022-09-30T18:25:23.114Z,8.60
2022-09-30T18:27:57.789Z,8.54
2022-09-30T18:30:25.584Z,8.49
2022-09-30T18:32:53.920Z,8.35
2022-09-30T18:35:24.154Z,8.32
2022-09-30T18:37:52.179Z,8.34
2022-09-30T18:40:22.953Z,8.26
2022-09-30T18:42:58.386Z,8.15
2022-09-30T18:45:27.038Z,8.04
2022-09-30T18:47:59.871Z,7.91
2022-09-30T18:50:29.370Z,7.97
2022-09-30T18:52:57.790Z,8.08
2022-09-30T18:55:24.982Z,8.03
2022-09-30T18:57:55.986Z,7.96
2022-09-30T19:00:22.546Z,7.95
2022-09-30T19:02:52.525Z,7.84
2022-09-30T19:05:19.502Z,7.70
2022-09-30T19:07:45.954Z,7.51
2022-09-30T19:10:13.104Z,7.42
2022-09-30T19:12:44.372Z,7.26
2022-09-30T19:15:17.058Z,7.07
2022-09-30T19:17:44.975Z,7.08
2022-09-30T19:20:15.014Z,7.13
2022-09-30T19:22:41.477Z,7.17
2022-09-30T19:25:11.552Z,7.32
2022-09-30T19:27:40.809Z,7.30
2022-09-30T19:30:11.142Z,7.26
2022-09-30T19:32:38.494Z,7.20
2022-09-30T19:35:11.917Z,7.07
2022-09-30T19:37:44.141Z,6.95
2022-09-30T19:40:21.784Z,6.85
2022-09-30T19:42:50.035Z,6.77
2022-09-30T19:45:19.382Z,6.70
2022-09-30T19:47:47.782Z,6.68
2022-09-30T19:50:14.572Z,6.65
2022-09-30T19:52:53.370Z,6.56
2022-09-30T19:55:21.904Z,6.48
2022-09-30T19:57:48.341Z,6.46
2022-09-30T20:00:14.886Z,6.48
2022-09-30T20:02:41.908Z,6.46
2022-09-30T20:05:09.104Z,6.56
2022-09-30T20:07:35.541Z,6.71
2022-09-30T20:10:02.235Z,6.62
2022-09-30T20:12:29.047Z,6.57
2022-09-30T20:15:14.295Z,6.55
2022-09-30T20:17:40.799Z,6.48
2022-09-30T20:20:26.727Z,6.52
2022-09-30T20:22:53.271Z,6.59
2022-09-30T20:25:20.170Z,6.58
2022-09-30T20:27:51.306Z,6.56
2022-09-30T20:30:19.165Z,6.46
2022-09-30T20:32:45.635Z,6.41
2022-09-30T20:35:12.325Z,6.56
2022-09-30T20:37:40.636Z,6.50
2022-09-30T20:40:09.362Z,6.27
2022-09-30T20:42:38.119Z,6.15
2022-09-30T20:45:10.642Z,6.19
2022-09-30T20:47:44.908Z,6.05
2022-09-30T20:50:12.770Z,6.04
2022-09-30T20:52:39.349Z,5.92
2022-09-30T20:55:06.548Z,5.93
2022-09-30T20:57:33.039Z,5.99
2022-09-30T20:59:59.976Z,6.03
2022-09-30T21:02:28.105Z,6.01
2022-09-30T21:04:57.479Z,6.05
2022-09-30T21:07:25.235Z,6.10
2022-09-30T21:09:52.322Z,6.12
2022-09-30T21:12:18.918Z,6.14
2022-09-30T21:14:45.738Z,6.16
2022-09-30T21:17:12.242Z,6.17
2022-09-30T21:19:38.702Z,6.21
2022-09-30T21:22:05.137Z,6.26
2022-09-30T21:24:31.612Z,6.14
2022-09-30T21:26:58.055Z,6.18
2022-09-30T21:29:24.576Z,6.25
2022-09-30T21:31:51.058Z,6.22
2022-09-30T21:34:17.577Z,6.27
2022-09-30T21:36:44.098Z,6.33
2022-09-30T21:39:11.537Z,6.30
2022-09-30T21:41:38.062Z,6.32
2022-09-30T21:44:04.574Z,6.28
2022-09-30T21:46:31.062Z,6.15
2022-09-30T21:49:18.674Z,5.96
2022-09-30T21:51:45.982Z,5.79
2022-09-30T21:54:13.960Z,5.79
2022-09-30T21:56:42.828Z,5.70
2022-09-30T21:59:10.464Z,5.73
2022-09-30T22:01:39.932Z,5.77
2022-09-30T22:04:07.458Z,5.88
2022-09-30T22:06:34.125Z,5.96
2022-09-30T22:09:01.825Z,5.92
2022-09-30T22:11:31.280Z,5.81
2022-09-30T22:14:00.357Z,5.84
2022-09-30T22:16:31.952Z,5.88
2022-09-30T22:19:01.618Z,5.80
2022-09-30T22:21:34.143Z,5.73
2022-09-30T22:24:03.399Z,5.70
2022-09-30T22:26:32.819Z,5.74
2022-09-30T22:29:10.801Z,5.70
2022-09-30T22:31:39.117Z,5.83
2022-09-30T22:34:29.206Z,5.90
2022-09-30T22:37:14.324Z,5.95
2022-09-30T22:39:40.787Z,6.07
2022-09-30T22:42:07.444Z,6.13
2022-09-30T22:44:36.815Z,6.13
2022-09-30T22:47:04.549Z,6.15
2022-09-30T22:49:34.907Z,6.26
2022-09-30T22:52:02.870Z,6.25
2022-09-30T22:54:30.838Z,6.22
2022-09-30T22:56:59.131Z,6.32
2022-09-30T22:59:27.119Z,6.39
2022-09-30T23:01:54.284Z,6.39
2022-09-30T23:04:22.046Z,6.41
2022-09-30T23:06:50.922Z,6.37
2022-09-30T23:09:18.863Z,6.38
2022-09-30T23:11:46.078Z,6.39
2022-09-30T23:14:13.315Z,6.45
2022-09-30T23:16:41.003Z,6.45
2022-09-30T23:19:07.627Z,6.51
2022-09-30T23:21:34.499Z,6.51
2022-09-30T23:24:01.871Z,6.55
2022-09-30T23:26:29.927Z,6.58
2022-09-30T23:28:59.243Z,6.63
2022-09-30T23:31:26.766Z,6.68
2022-09-30T23:33:56.809Z,6.74
2022-09-30T23:36:29.282Z,6.76
2022-09-30T23:39:03.070Z,6.67
2022-09-30T23:41:32.527Z,6.78
2022-09-30T23:43:59.481Z,6.82
2022-09-30T23:46:25.910Z,6.92
2022-09-30T23:48:52.441Z,6.99
2022-09-30T23:51:19.711Z,7.07
2022-09-30T23:53:46.823Z,7.15
2022-09-30T23:56:17.706Z,7.19
2022-09-30T23:58:45.626Z,7.20
